sensor_id;sensor_type;location;lat;lon;timestamp;P1;durP1;ratioP1;P2;durP2;ratioP2
12908;SDS011;6522;49.622;6.126;2022-10-16T00:00:54;3.58;;;3.28;;
12908;SDS011;6522;49.622;6.126;2022-10-16T00:03:41;4.00;;;3.60;;
12908;SDS011;6522;49.622;6.126;2022-10-16T00:06:28;4.60;;;4.20;;
12908;SDS011;6522;49.622;6.126;2022-10-16T00:09:15;5.93;;;3.92;;
12908;SDS011;6522;49.622;6.126;2022-10-16T00:12:01;5.45;;;4.22;;
12908;SDS011;6522;49.622;6.126;2022-10-16T00:14:48;6.47;;;4.15;;
12908;SDS011;6522;49.622;6.126;2022-10-16T00:17:35;7.43;;;4.10;;
12908;SDS011;6522;49.622;6.126;2022-10-16T00:20:21;3.28;;;2.90;;
12908;SDS011;6522;49.622;6.126;2022-10-16T00:23:08;3.95;;;3.65;;
12908;SDS011;6522;49.622;6.126;2022-10-16T00:25:56;5.30;;;3.60;;
12908;SDS011;6522;49.622;6.126;2022-10-16T00:28:41;5.05;;;4.03;;
12908;SDS011;6522;49.622;6.126;2022-10-16T00:31:28;5.85;;;4.50;;
12908;SDS011;6522;49.622;6.126;2022-10-16T00:34:14;10.30;;;4.57;;
12908;SDS011;6522;49.622;6.126;2022-10-16T00:37:02;7.82;;;4.03;;
12908;SDS011;6522;49.622;6.126;2022-10-16T00:39:48;5.25;;;4.75;;
12908;SDS011;6522;49.622;6.126;2022-10-16T00:42:35;5.62;;;4.30;;
12908;SDS011;6522;49.622;6.126;2022-10-16T00:45:22;6.62;;;4.90;;
12908;SDS011;6522;49.622;6.126;2022-10-16T00:48:11;6.03;;;4.20;;
12908;SDS011;6522;49.622;6.126;2022-10-16T00:50:55;6.70;;;4.50;;
12908;SDS011;6522;49.622;6.126;2022-10-16T00:53:43;5.40;;;4.90;;
12908;SDS011;6522;49.622;6.126;2022-10-16T00:56:29;5.12;;;4.62;;
12908;SDS011;6522;49.622;6.126;2022-10-16T00:59:19;4.65;;;4.25;;
12908;SDS011;6522;49.622;6.126;2022-10-16T01:02:02;4.78;;;4.20;;
12908;SDS011;6522;49.622;6.126;2022-10-16T01:04:50;3.25;;;2.95;;
12908;SDS011;6522;49.622;6.126;2022-10-16T01:13:21;4.20;;;3.20;;
12908;SDS011;6522;49.622;6.126;2022-10-16T01:16:05;3.72;;;2.90;;
12908;SDS011;6522;49.622;6.126;2022-10-16T01:18:55;4.00;;;3.60;;
12908;SDS011;6522;49.622;6.126;2022-10-16T01:21:39;3.03;;;2.83;;
12908;SDS011;6522;49.622;6.126;2022-10-16T01:24:32;3.45;;;2.90;;
12908;SDS011;6522;49.622;6.126;2022-10-16T01:27:25;5.68;;;2.90;;
12908;SDS011;6522;49.622;6.126;2022-10-16T01:30:12;2.90;;;2.70;;
12908;SDS011;6522;49.622;6.126;2022-10-16T01:36:01;2.80;;;2.60;;
12908;SDS011;6522;49.622;6.126;2022-10-16T01:38:47;2.40;;;2.20;;
12908;SDS011;6522;49.622;6.126;2022-10-16T01:41:33;2.97;;;2.45;;
12908;SDS011;6522;49.622;6.126;2022-10-16T01:44:20;3.50;;;2.30;;
12908;SDS011;6522;49.622;6.126;2022-10-16T01:47:07;3.60;;;2.65;;
12908;SDS011;6522;49.622;6.126;2022-10-16T01:49:53;2.92;;;2.25;;
12908;SDS011;6522;49.622;6.126;2022-10-16T01:52:41;2.80;;;2.12;;
12908;SDS011;6522;49.622;6.126;2022-10-16T01:55:31;2.95;;;2.35;;
12908;SDS011;6522;49.622;6.126;2022-10-16T01:58:17;4.75;;;2.30;;
12908;SDS011;6522;49.622;6.126;2022-10-16T02:01:04;2.33;;;2.10;;
12908;SDS011;6522;49.622;6.126;2022-10-16T02:03:51;2.25;;;2.05;;
12908;SDS011;6522;49.622;6.126;2022-10-16T02:06:37;2.87;;;1.60;;
12908;SDS011;6522;49.622;6.126;2022-10-16T02:09:24;3.03;;;2.25;;
12908;SDS011;6522;49.622;6.126;2022-10-16T02:12:15;3.25;;;2.37;;
12908;SDS011;6522;49.622;6.126;2022-10-16T02:15:00;2.95;;;2.12;;
12908;SDS011;6522;49.622;6.126;2022-10-16T02:17:47;3.12;;;2.15;;
12908;SDS011;6522;49.622;6.126;2022-10-16T02:20:40;4.00;;;2.55;;
12908;SDS011;6522;49.622;6.126;2022-10-16T02:23:27;5.10;;;2.45;;
12908;SDS011;6522;49.622;6.126;2022-10-16T02:26:11;9.88;;;3.03;;
12908;SDS011;6522;49.622;6.126;2022-10-16T02:28:59;2.75;;;1.90;;
12908;SDS011;6522;49.622;6.126;2022-10-16T02:31:47;8.82;;;1.90;;
12908;SDS011;6522;49.622;6.126;2022-10-16T02:34:30;3.25;;;1.80;;
12908;SDS011;6522;49.622;6.126;2022-10-16T02:37:17;2.40;;;2.20;;
12908;SDS011;6522;49.622;6.126;2022-10-16T02:40:04;2.00;;;1.80;;
12908;SDS011;6522;49.622;6.126;2022-10-16T02:42:52;2.62;;;1.90;;
12908;SDS011;6522;49.622;6.126;2022-10-16T02:45:38;3.10;;;1.83;;
12908;SDS011;6522;49.622;6.126;2022-10-16T02:48:25;1.90;;;1.70;;
12908;SDS011;6522;49.622;6.126;2022-10-16T02:51:13;2.10;;;1.87;;
12908;SDS011;6522;49.622;6.126;2022-10-16T02:53:59;2.97;;;1.70;;
12908;SDS011;6522;49.622;6.126;2022-10-16T02:56:46;1.52;;;1.35;;
12908;SDS011;6522;49.622;6.126;2022-10-16T02:59:33;2.50;;;2.30;;
12908;SDS011;6522;49.622;6.126;2022-10-16T03:02:20;3.97;;;1.48;;
12908;SDS011;6522;49.622;6.126;2022-10-16T03:05:06;3.28;;;2.65;;
12908;SDS011;6522;49.622;6.126;2022-10-16T03:07:53;1.70;;;1.60;;
12908;SDS011;6522;49.622;6.126;2022-10-16T03:10:40;1.73;;;1.62;;
12908;SDS011;6522;49.622;6.126;2022-10-16T03:13:27;2.05;;;1.50;;
12908;SDS011;6522;49.622;6.126;2022-10-16T03:16:14;1.95;;;1.42;;
12908;SDS011;6522;49.622;6.126;2022-10-16T03:19:01;2.12;;;1.92;;
12908;SDS011;6522;49.622;6.126;2022-10-16T03:21:48;1.83;;;1.73;;
12908;SDS011;6522;49.622;6.126;2022-10-16T03:24:34;2.20;;;2.00;;
12908;SDS011;6522;49.622;6.126;2022-10-16T03:27:21;2.30;;;2.10;;
12908;SDS011;6522;49.622;6.126;2022-10-16T03:30:08;1.80;;;1.60;;
12908;SDS011;6522;49.622;6.126;2022-10-16T03:32:55;1.98;;;1.77;;
12908;SDS011;6522;49.622;6.126;2022-10-16T03:35:42;1.90;;;1.80;;
12908;SDS011;6522;49.622;6.126;2022-10-16T03:38:29;3.97;;;2.03;;
12908;SDS011;6522;49.622;6.126;2022-10-16T03:41:16;1.73;;;1.52;;
12908;SDS011;6522;49.622;6.126;2022-10-16T03:44:03;2.08;;;1.37;;
12908;SDS011;6522;49.622;6.126;2022-10-16T03:46:50;4.03;;;2.10;;
12908;SDS011;6522;49.622;6.126;2022-10-16T03:49:37;2.25;;;1.92;;
12908;SDS011;6522;49.622;6.126;2022-10-16T03:52:24;2.15;;;1.95;;
12908;SDS011;6522;49.622;6.126;2022-10-16T03:55:11;2.62;;;2.40;;
12908;SDS011;6522;49.622;6.126;2022-10-16T03:57:58;2.55;;;2.10;;
12908;SDS011;6522;49.622;6.126;2022-10-16T04:00:45;3.00;;;2.10;;
12908;SDS011;6522;49.622;6.126;2022-10-16T04:03:31;3.05;;;1.90;;
12908;SDS011;6522;49.622;6.126;2022-10-16T04:06:18;2.20;;;2.00;;
12908;SDS011;6522;49.622;6.126;2022-10-16T04:09:05;3.25;;;1.65;;
12908;SDS011;6522;49.622;6.126;2022-10-16T04:11:51;2.40;;;2.20;;
12908;SDS011;6522;49.622;6.126;2022-10-16T04:14:38;3.50;;;2.37;;
12908;SDS011;6522;49.622;6.126;2022-10-16T04:17:25;2.67;;;2.47;;
12908;SDS011;6522;49.622;6.126;2022-10-16T04:20:12;2.22;;;2.10;;
12908;SDS011;6522;49.622;6.126;2022-10-16T04:22:58;2.28;;;2.08;;
12908;SDS011;6522;49.622;6.126;2022-10-16T04:25:45;2.40;;;2.20;;
12908;SDS011;6522;49.622;6.126;2022-10-16T04:28:32;2.00;;;1.80;;
12908;SDS011;6522;49.622;6.126;2022-10-16T04:31:19;2.37;;;2.17;;
12908;SDS011;6522;49.622;6.126;2022-10-16T04:34:06;2.97;;;2.25;;
12908;SDS011;6522;49.622;6.126;2022-10-16T04:36:52;2.35;;;2.15;;
12908;SDS011;6522;49.622;6.126;2022-10-16T04:39:39;3.30;;;1.90;;
12908;SDS011;6522;49.622;6.126;2022-10-16T04:42:26;3.87;;;3.53;;
12908;SDS011;6522;49.622;6.126;2022-10-16T04:45:12;2.30;;;2.10;;
12908;SDS011;6522;49.622;6.126;2022-10-16T04:47:59;2.22;;;2.03;;
12908;SDS011;6522;49.622;6.126;2022-10-16T04:50:46;2.35;;;2.15;;
12908;SDS011;6522;49.622;6.126;2022-10-16T04:53:32;2.00;;;1.77;;
12908;SDS011;6522;49.622;6.126;2022-10-16T04:56:19;3.20;;;2.20;;
12908;SDS011;6522;49.622;6.126;2022-10-16T04:59:06;2.42;;;2.22;;
12908;SDS011;6522;49.622;6.126;2022-10-16T05:01:53;2.90;;;2.10;;
12908;SDS011;6522;49.622;6.126;2022-10-16T05:04:40;3.30;;;3.00;;
12908;SDS011;6522;49.622;6.126;2022-10-16T05:07:27;2.70;;;2.45;;
12908;SDS011;6522;49.622;6.126;2022-10-16T05:10:14;4.25;;;2.87;;
12908;SDS011;6522;49.622;6.126;2022-10-16T05:13:00;4.05;;;3.60;;
12908;SDS011;6522;49.622;6.126;2022-10-16T05:15:47;2.70;;;2.45;;
12908;SDS011;6522;49.622;6.126;2022-10-16T05:18:34;2.72;;;2.37;;
12908;SDS011;6522;49.622;6.126;2022-10-16T05:21:21;2.70;;;2.50;;
12908;SDS011;6522;49.622;6.126;2022-10-16T05:24:08;3.35;;;2.75;;
12908;SDS011;6522;49.622;6.126;2022-10-16T05:26:55;5.07;;;3.00;;
12908;SDS011;6522;49.622;6.126;2022-10-16T05:29:41;5.85;;;3.35;;
12908;SDS011;6522;49.622;6.126;2022-10-16T05:32:28;4.93;;;3.70;;
12908;SDS011;6522;49.622;6.126;2022-10-16T05:35:16;4.10;;;2.90;;
12908;SDS011;6522;49.622;6.126;2022-10-16T05:38:02;8.77;;;3.80;;
12908;SDS011;6522;49.622;6.126;2022-10-16T05:40:51;3.20;;;2.70;;
12908;SDS011;6522;49.622;6.126;2022-10-16T05:43:38;4.78;;;3.45;;
12908;SDS011;6522;49.622;6.126;2022-10-16T05:46:25;3.50;;;2.80;;
12908;SDS011;6522;49.622;6.126;2022-10-16T05:49:11;3.03;;;2.20;;
12908;SDS011;6522;49.622;6.126;2022-10-16T05:51:58;3.80;;;2.50;;
12908;SDS011;6522;49.622;6.126;2022-10-16T05:54:45;3.70;;;2.33;;
12908;SDS011;6522;49.622;6.126;2022-10-16T05:57:32;3.87;;;2.50;;
12908;SDS011;6522;49.622;6.126;2022-10-16T06:00:18;3.20;;;2.90;;
12908;SDS011;6522;49.622;6.126;2022-10-16T06:03:05;2.87;;;2.58;;
12908;SDS011;6522;49.622;6.126;2022-10-16T06:05:52;3.83;;;3.40;;
12908;SDS011;6522;49.622;6.126;2022-10-16T06:08:39;4.10;;;3.33;;
12908;SDS011;6522;49.622;6.126;2022-10-16T06:11:26;4.57;;;4.12;;
12908;SDS011;6522;49.622;6.126;2022-10-16T06:14:12;4.37;;;3.97;;
12908;SDS011;6522;49.622;6.126;2022-10-16T06:16:58;4.82;;;4.30;;
12908;SDS011;6522;49.622;6.126;2022-10-16T06:19:45;5.40;;;4.90;;
12908;SDS011;6522;49.622;6.126;2022-10-16T06:22:31;4.45;;;3.65;;
12908;SDS011;6522;49.622;6.126;2022-10-16T06:25:18;4.85;;;4.30;;
12908;SDS011;6522;49.622;6.126;2022-10-16T06:28:05;7.28;;;4.35;;
12908;SDS011;6522;49.622;6.126;2022-10-16T06:30:58;4.37;;;3.45;;
12908;SDS011;6522;49.622;6.126;2022-10-16T06:33:38;4.37;;;3.97;;
12908;SDS011;6522;49.622;6.126;2022-10-16T06:36:25;5.00;;;4.15;;
12908;SDS011;6522;49.622;6.126;2022-10-16T06:39:12;4.62;;;4.22;;
12908;SDS011;6522;49.622;6.126;2022-10-16T06:41:58;4.68;;;3.62;;
12908;SDS011;6522;49.622;6.126;2022-10-16T06:44:45;5.60;;;5.10;;
12908;SDS011;6522;49.622;6.126;2022-10-16T06:47:32;4.55;;;3.95;;
12908;SDS011;6522;49.622;6.126;2022-10-16T06:50:18;7.68;;;4.20;;
12908;SDS011;6522;49.622;6.126;2022-10-16T06:53:05;4.60;;;4.07;;
12908;SDS011;6522;49.622;6.126;2022-10-16T06:55:52;5.20;;;4.15;;
12908;SDS011;6522;49.622;6.126;2022-10-16T06:58:39;5.30;;;3.83;;
12908;SDS011;6522;49.622;6.126;2022-10-16T07:01:26;8.65;;;4.65;;
12908;SDS011;6522;49.622;6.126;2022-10-16T07:04:12;5.37;;;3.75;;
12908;SDS011;6522;49.622;6.126;2022-10-16T07:07:00;3.78;;;3.47;;
12908;SDS011;6522;49.622;6.126;2022-10-16T07:09:46;4.78;;;4.00;;
12908;SDS011;6522;49.622;6.126;2022-10-16T07:12:33;5.35;;;3.92;;
12908;SDS011;6522;49.622;6.126;2022-10-16T07:15:20;5.40;;;4.12;;
12908;SDS011;6522;49.622;6.126;2022-10-16T07:18:07;7.47;;;4.47;;
12908;SDS011;6522;49.622;6.126;2022-10-16T07:20:53;7.30;;;4.70;;
12908;SDS011;6522;49.622;6.126;2022-10-16T07:23:40;4.75;;;4.20;;
12908;SDS011;6522;49.622;6.126;2022-10-16T07:26:27;4.10;;;3.80;;
12908;SDS011;6522;49.622;6.126;2022-10-16T07:29:17;4.47;;;4.07;;
12908;SDS011;6522;49.622;6.126;2022-10-16T07:32:01;3.78;;;3.03;;
12908;SDS011;6522;49.622;6.126;2022-10-16T07:34:47;7.28;;;4.12;;
12908;SDS011;6522;49.622;6.126;2022-10-16T07:37:34;4.25;;;3.85;;
12908;SDS011;6522;49.622;6.126;2022-10-16T07:40:21;4.20;;;3.33;;
12908;SDS011;6522;49.622;6.126;2022-10-16T07:43:07;3.90;;;3.50;;
12908;SDS011;6522;49.622;6.126;2022-10-16T07:45:54;5.25;;;3.55;;
12908;SDS011;6522;49.622;6.126;2022-10-16T07:48:41;4.95;;;4.28;;
12908;SDS011;6522;49.622;6.126;2022-10-16T07:51:28;3.90;;;3.50;;
12908;SDS011;6522;49.622;6.126;2022-10-16T07:54:14;5.25;;;4.75;;
12908;SDS011;6522;49.622;6.126;2022-10-16T07:57:01;6.00;;;4.25;;
12908;SDS011;6522;49.622;6.126;2022-10-16T07:59:48;8.35;;;6.45;;
12908;SDS011;6522;49.622;6.126;2022-10-16T08:02:35;6.90;;;6.20;;
12908;SDS011;6522;49.622;6.126;2022-10-16T08:05:22;8.52;;;5.80;;
12908;SDS011;6522;49.622;6.126;2022-10-16T08:08:12;5.82;;;5.32;;
12908;SDS011;6522;49.622;6.126;2022-10-16T08:10:56;6.75;;;5.82;;
12908;SDS011;6522;49.622;6.126;2022-10-16T08:13:42;5.90;;;5.40;;
12908;SDS011;6522;49.622;6.126;2022-10-16T08:16:29;7.12;;;6.12;;
12908;SDS011;6522;49.622;6.126;2022-10-16T08:19:16;7.65;;;6.12;;
12908;SDS011;6522;49.622;6.126;2022-10-16T08:22:02;6.62;;;5.40;;
12908;SDS011;6522;49.622;6.126;2022-10-16T08:24:49;7.00;;;6.03;;
12908;SDS011;6522;49.622;6.126;2022-10-16T08:27:36;6.25;;;5.57;;
12908;SDS011;6522;49.622;6.126;2022-10-16T08:30:23;5.20;;;4.70;;
12908;SDS011;6522;49.622;6.126;2022-10-16T08:33:10;4.22;;;3.85;;
12908;SDS011;6522;49.622;6.126;2022-10-16T08:35:57;4.68;;;4.25;;
12908;SDS011;6522;49.622;6.126;2022-10-16T08:38:46;3.97;;;3.62;;
12908;SDS011;6522;49.622;6.126;2022-10-16T08:41:39;4.25;;;3.65;;
12908;SDS011;6522;49.622;6.126;2022-10-16T08:47:26;7.15;;;5.75;;
12908;SDS011;6522;49.622;6.126;2022-10-16T08:50:13;6.57;;;5.70;;
12908;SDS011;6522;49.622;6.126;2022-10-16T08:52:59;9.10;;;4.30;;
12908;SDS011;6522;49.622;6.126;2022-10-16T08:55:48;5.15;;;4.62;;
12908;SDS011;6522;49.622;6.126;2022-10-16T08:58:33;5.97;;;4.20;;
12908;SDS011;6522;49.622;6.126;2022-10-16T09:01:21;3.75;;;3.33;;
12908;SDS011;6522;49.622;6.126;2022-10-16T09:04:29;4.12;;;3.72;;
12908;SDS011;6522;49.622;6.126;2022-10-16T09:07:24;4.25;;;3.35;;
12908;SDS011;6522;49.622;6.126;2022-10-16T09:10:11;4.50;;;3.40;;
12908;SDS011;6522;49.622;6.126;2022-10-16T09:12:58;3.87;;;3.22;;
12908;SDS011;6522;49.622;6.126;2022-10-16T09:18:43;3.85;;;3.55;;
12908;SDS011;6522;49.622;6.126;2022-10-16T09:21:28;3.75;;;3.17;;
12908;SDS011;6522;49.622;6.126;2022-10-16T09:24:15;4.87;;;4.37;;
12908;SDS011;6522;49.622;6.126;2022-10-16T09:27:01;6.47;;;3.90;;
12908;SDS011;6522;49.622;6.126;2022-10-16T09:29:48;4.35;;;3.95;;
12908;SDS011;6522;49.622;6.126;2022-10-16T09:32:34;3.62;;;3.33;;
12908;SDS011;6522;49.622;6.126;2022-10-16T09:35:56;3.55;;;3.25;;
12908;SDS011;6522;49.622;6.126;2022-10-16T09:38:22;5.68;;;2.60;;
12908;SDS011;6522;49.622;6.126;2022-10-16T09:41:20;2.78;;;2.47;;
12908;SDS011;6522;49.622;6.126;2022-10-16T09:44:03;3.47;;;2.65;;
12908;SDS011;6522;49.622;6.126;2022-10-16T09:47:00;2.53;;;1.80;;
12908;SDS011;6522;49.622;6.126;2022-10-16T09:49:37;2.50;;;2.30;;
12908;SDS011;6522;49.622;6.126;2022-10-16T09:52:24;2.50;;;1.90;;
12908;SDS011;6522;49.622;6.126;2022-10-16T09:55:16;3.00;;;1.80;;
12908;SDS011;6522;49.622;6.126;2022-10-16T09:57:58;2.80;;;2.50;;
12908;SDS011;6522;49.622;6.126;2022-10-16T10:00:52;2.72;;;1.77;;
12908;SDS011;6522;49.622;6.126;2022-10-16T10:03:35;3.00;;;2.20;;
12908;SDS011;6522;49.622;6.126;2022-10-16T10:06:23;3.93;;;2.80;;
12908;SDS011;6522;49.622;6.126;2022-10-16T10:09:22;2.50;;;1.90;;
12908;SDS011;6522;49.622;6.126;2022-10-16T10:12:21;2.92;;;1.80;;
12908;SDS011;6522;49.622;6.126;2022-10-16T10:15:10;3.40;;;3.10;;
12908;SDS011;6522;49.622;6.126;2022-10-16T10:17:54;2.85;;;2.15;;
12908;SDS011;6522;49.622;6.126;2022-10-16T10:20:40;3.17;;;2.40;;
12908;SDS011;6522;49.622;6.126;2022-10-16T10:23:28;3.20;;;2.90;;
12908;SDS011;6522;49.622;6.126;2022-10-16T10:26:20;2.65;;;2.20;;
12908;SDS011;6522;49.622;6.126;2022-10-16T10:29:05;3.00;;;2.10;;
12908;SDS011;6522;49.622;6.126;2022-10-16T10:40:40;4.33;;;3.53;;
12908;SDS011;6522;49.622;6.126;2022-10-16T10:43:29;3.90;;;2.50;;
12908;SDS011;6522;49.622;6.126;2022-10-16T10:46:23;3.30;;;2.87;;
12908;SDS011;6522;49.622;6.126;2022-10-16T10:52:02;5.77;;;3.60;;
12908;SDS011;6522;49.622;6.126;2022-10-16T10:54:48;4.35;;;3.95;;
12908;SDS011;6522;49.622;6.126;2022-10-16T10:57:38;4.50;;;4.10;;
12908;SDS011;6522;49.622;6.126;2022-10-16T11:00:28;4.47;;;3.80;;
12908;SDS011;6522;49.622;6.126;2022-10-16T11:03:24;5.95;;;3.83;;
12908;SDS011;6522;49.622;6.126;2022-10-16T11:06:05;3.33;;;2.70;;
12908;SDS011;6522;49.622;6.126;2022-10-16T11:09:38;3.55;;;2.83;;
12908;SDS011;6522;49.622;6.126;2022-10-16T11:11:41;2.90;;;2.70;;
12908;SDS011;6522;49.622;6.126;2022-10-16T11:14:31;5.20;;;3.70;;
12908;SDS011;6522;49.622;6.126;2022-10-16T11:17:25;4.85;;;3.03;;
12908;SDS011;6522;49.622;6.126;2022-10-16T11:20:12;4.20;;;3.80;;
12908;SDS011;6522;49.622;6.126;2022-10-16T11:25:57;5.22;;;4.75;;
12908;SDS011;6522;49.622;6.126;2022-10-16T11:28:54;4.95;;;4.50;;
12908;SDS011;6522;49.622;6.126;2022-10-16T11:34:34;4.15;;;3.75;;
12908;SDS011;6522;49.622;6.126;2022-10-16T11:37:27;4.72;;;4.03;;
12908;SDS011;6522;49.622;6.126;2022-10-16T11:40:22;4.85;;;3.60;;
12908;SDS011;6522;49.622;6.126;2022-10-16T11:43:11;4.50;;;3.78;;
12908;SDS011;6522;49.622;6.126;2022-10-16T11:45:55;4.10;;;3.70;;
12908;SDS011;6522;49.622;6.126;2022-10-16T11:51:41;5.20;;;4.00;;
12908;SDS011;6522;49.622;6.126;2022-10-16T11:57:24;4.45;;;4.05;;
12908;SDS011;6522;49.622;6.126;2022-10-16T12:08:42;4.30;;;3.90;;
12908;SDS011;6522;49.622;6.126;2022-10-16T12:14:18;4.07;;;3.73;;
12908;SDS011;6522;49.622;6.126;2022-10-16T12:17:03;5.82;;;4.18;;
12908;SDS011;6522;49.622;6.126;2022-10-16T12:23:02;4.43;;;3.63;;
12908;SDS011;6522;49.622;6.126;2022-10-16T12:25:53;6.82;;;3.92;;
12908;SDS011;6522;49.622;6.126;2022-10-16T12:28:34;4.10;;;3.70;;
12908;SDS011;6522;49.622;6.126;2022-10-16T12:31:21;4.30;;;3.90;;
12908;SDS011;6522;49.622;6.126;2022-10-16T12:34:14;5.25;;;4.15;;
12908;SDS011;6522;49.622;6.126;2022-10-16T12:36:55;4.47;;;4.07;;
12908;SDS011;6522;49.622;6.126;2022-10-16T12:39:41;5.10;;;4.00;;
12908;SDS011;6522;49.622;6.126;2022-10-16T12:45:28;5.15;;;3.80;;
12908;SDS011;6522;49.622;6.126;2022-10-16T12:48:20;5.83;;;4.30;;
12908;SDS011;6522;49.622;6.126;2022-10-16T12:51:21;14.90;;;4.17;;
12908;SDS011;6522;49.622;6.126;2022-10-16T12:54:03;5.18;;;3.60;;
12908;SDS011;6522;49.622;6.126;2022-10-16T12:59:53;5.93;;;3.60;;
12908;SDS011;6522;49.622;6.126;2022-10-16T13:08:40;5.12;;;3.83;;
12908;SDS011;6522;49.622;6.126;2022-10-16T13:23:13;4.40;;;4.00;;
12908;SDS011;6522;49.622;6.126;2022-10-16T13:28:59;4.87;;;4.20;;
12908;SDS011;6522;49.622;6.126;2022-10-16T13:31:46;5.40;;;4.90;;
12908;SDS011;6522;49.622;6.126;2022-10-16T13:34:32;6.80;;;4.90;;
12908;SDS011;6522;49.622;6.126;2022-10-16T13:37:20;6.40;;;5.70;;
12908;SDS011;6522;49.622;6.126;2022-10-16T13:40:12;8.57;;;6.37;;
12908;SDS011;6522;49.622;6.126;2022-10-16T13:42:55;8.23;;;6.10;;
12908;SDS011;6522;49.622;6.126;2022-10-16T13:45:42;9.30;;;6.80;;
12908;SDS011;6522;49.622;6.126;2022-10-16T13:48:29;7.57;;;6.45;;
12908;SDS011;6522;49.622;6.126;2022-10-16T13:51:16;9.27;;;6.70;;
12908;SDS011;6522;49.622;6.126;2022-10-16T13:54:02;6.32;;;5.53;;
12908;SDS011;6522;49.622;6.126;2022-10-16T13:56:49;10.27;;;6.70;;
12908;SDS011;6522;49.622;6.126;2022-10-16T13:59:36;10.68;;;6.90;;
12908;SDS011;6522;49.622;6.126;2022-10-16T14:02:33;8.30;;;6.20;;
12908;SDS011;6522;49.622;6.126;2022-10-16T14:05:18;8.60;;;6.97;;
12908;SDS011;6522;49.622;6.126;2022-10-16T14:08:05;10.77;;;6.50;;
12908;SDS011;6522;49.622;6.126;2022-10-16T14:10:59;12.70;;;7.30;;
12908;SDS011;6522;49.622;6.126;2022-10-16T14:13:45;6.78;;;5.90;;
12908;SDS011;6522;49.622;6.126;2022-10-16T14:16:31;7.10;;;6.37;;
12908;SDS011;6522;49.622;6.126;2022-10-16T14:19:20;6.80;;;6.20;;
12908;SDS011;6522;49.622;6.126;2022-10-16T14:22:25;8.98;;;6.50;;
12908;SDS011;6522;49.622;6.126;2022-10-16T14:24:52;6.33;;;5.73;;
12908;SDS011;6522;49.622;6.126;2022-10-16T14:27:39;9.47;;;5.90;;
12908;SDS011;6522;49.622;6.126;2022-10-16T14:30:25;9.30;;;6.50;;
12908;SDS011;6522;49.622;6.126;2022-10-16T14:33:23;11.30;;;6.60;;
12908;SDS011;6522;49.622;6.126;2022-10-16T14:39:03;7.00;;;6.20;;
12908;SDS011;6522;49.622;6.126;2022-10-16T14:41:49;6.70;;;6.00;;
12908;SDS011;6522;49.622;6.126;2022-10-16T14:44:35;9.30;;;6.00;;
12908;SDS011;6522;49.622;6.126;2022-10-16T14:47:22;9.75;;;5.78;;
12908;SDS011;6522;49.622;6.126;2022-10-16T14:50:08;6.50;;;5.90;;
12908;SDS011;6522;49.622;6.126;2022-10-16T14:52:54;8.40;;;6.27;;
12908;SDS011;6522;49.622;6.126;2022-10-16T14:55:42;9.15;;;6.45;;
12908;SDS011;6522;49.622;6.126;2022-10-16T14:58:28;7.82;;;6.12;;
12908;SDS011;6522;49.622;6.126;2022-10-16T15:01:15;7.53;;;6.20;;
12908;SDS011;6522;49.622;6.126;2022-10-16T15:04:01;9.70;;;8.00;;
12908;SDS011;6522;49.622;6.126;2022-10-16T15:06:48;7.85;;;5.43;;
12908;SDS011;6522;49.622;6.126;2022-10-16T15:09:35;7.93;;;6.47;;
12908;SDS011;6522;49.622;6.126;2022-10-16T15:12:21;7.10;;;6.07;;
12908;SDS011;6522;49.622;6.126;2022-10-16T15:18:10;7.62;;;6.12;;
12908;SDS011;6522;49.622;6.126;2022-10-16T15:20:57;12.73;;;6.33;;
12908;SDS011;6522;49.622;6.126;2022-10-16T15:23:44;8.40;;;5.35;;
12908;SDS011;6522;49.622;6.126;2022-10-16T15:26:31;7.57;;;5.20;;
12908;SDS011;6522;49.622;6.126;2022-10-16T15:29:17;7.30;;;5.10;;
12908;SDS011;6522;49.622;6.126;2022-10-16T15:32:04;5.93;;;5.32;;
12908;SDS011;6522;49.622;6.126;2022-10-16T15:34:51;7.18;;;5.53;;
12908;SDS011;6522;49.622;6.126;2022-10-16T15:37:38;6.80;;;5.60;;
12908;SDS011;6522;49.622;6.126;2022-10-16T15:40:24;7.37;;;6.27;;
12908;SDS011;6522;49.622;6.126;2022-10-16T15:43:11;6.18;;;5.53;;
12908;SDS011;6522;49.622;6.126;2022-10-16T15:46:04;8.13;;;5.30;;
12908;SDS011;6522;49.622;6.126;2022-10-16T15:48:48;6.60;;;5.90;;
12908;SDS011;6522;49.622;6.126;2022-10-16T15:51:37;7.43;;;6.70;;
12908;SDS011;6522;49.622;6.126;2022-10-16T15:54:21;7.40;;;5.05;;
12908;SDS011;6522;49.622;6.126;2022-10-16T15:57:08;5.18;;;4.68;;
12908;SDS011;6522;49.622;6.126;2022-10-16T15:59:55;5.80;;;5.20;;
12908;SDS011;6522;49.622;6.126;2022-10-16T16:02:42;7.05;;;4.60;;
12908;SDS011;6522;49.622;6.126;2022-10-16T16:05:28;6.47;;;4.90;;
12908;SDS011;6522;49.622;6.126;2022-10-16T16:08:15;11.47;;;5.77;;
12908;SDS011;6522;49.622;6.126;2022-10-16T16:11:05;11.35;;;5.90;;
12908;SDS011;6522;49.622;6.126;2022-10-16T16:13:48;7.60;;;5.93;;
12908;SDS011;6522;49.622;6.126;2022-10-16T16:16:35;8.30;;;5.40;;
12908;SDS011;6522;49.622;6.126;2022-10-16T16:19:22;7.22;;;6.00;;
12908;SDS011;6522;49.622;6.126;2022-10-16T16:22:09;7.40;;;6.00;;
12908;SDS011;6522;49.622;6.126;2022-10-16T16:24:56;6.80;;;5.85;;
12908;SDS011;6522;49.622;6.126;2022-10-16T16:27:42;6.65;;;5.95;;
12908;SDS011;6522;49.622;6.126;2022-10-16T16:30:29;8.77;;;6.47;;
12908;SDS011;6522;49.622;6.126;2022-10-16T16:33:16;7.27;;;6.40;;
12908;SDS011;6522;49.622;6.126;2022-10-16T16:36:04;7.00;;;6.23;;
12908;SDS011;6522;49.622;6.126;2022-10-16T16:38:50;8.77;;;7.05;;
12908;SDS011;6522;49.622;6.126;2022-10-16T16:41:37;9.83;;;7.90;;
12908;SDS011;6522;49.622;6.126;2022-10-16T16:44:24;9.73;;;6.90;;
12908;SDS011;6522;49.622;6.126;2022-10-16T16:47:11;13.62;;;8.60;;
12908;SDS011;6522;49.622;6.126;2022-10-16T16:49:57;11.90;;;7.70;;
12908;SDS011;6522;49.622;6.126;2022-10-16T16:52:44;9.93;;;8.52;;
12908;SDS011;6522;49.622;6.126;2022-10-16T16:55:32;10.18;;;8.70;;
12908;SDS011;6522;49.622;6.126;2022-10-16T16:58:17;9.13;;;8.23;;
12908;SDS011;6522;49.622;6.126;2022-10-16T17:01:04;9.00;;;8.10;;
12908;SDS011;6522;49.622;6.126;2022-10-16T17:03:52;11.23;;;8.25;;
12908;SDS011;6522;49.622;6.126;2022-10-16T17:06:38;10.02;;;8.98;;
12908;SDS011;6522;49.622;6.126;2022-10-16T17:09:25;10.10;;;8.95;;
12908;SDS011;6522;49.622;6.126;2022-10-16T17:12:12;11.48;;;9.55;;
12908;SDS011;6522;49.622;6.126;2022-10-16T17:14:59;11.30;;;10.15;;
12908;SDS011;6522;49.622;6.126;2022-10-16T17:17:45;12.25;;;10.07;;
12908;SDS011;6522;49.622;6.126;2022-10-16T17:20:35;14.15;;;10.25;;
12908;SDS011;6522;49.622;6.126;2022-10-16T17:23:19;14.53;;;10.10;;
12908;SDS011;6522;49.622;6.126;2022-10-16T17:26:07;12.98;;;11.50;;
12908;SDS011;6522;49.622;6.126;2022-10-16T17:28:54;13.05;;;10.93;;
12908;SDS011;6522;49.622;6.126;2022-10-16T17:31:40;11.80;;;10.45;;
12908;SDS011;6522;49.622;6.126;2022-10-16T17:34:26;11.43;;;10.23;;
12908;SDS011;6522;49.622;6.126;2022-10-16T17:37:13;13.88;;;10.73;;
12908;SDS011;6522;49.622;6.126;2022-10-16T17:40:00;12.80;;;11.35;;
12908;SDS011;6522;49.622;6.126;2022-10-16T17:42:47;11.00;;;9.80;;
12908;SDS011;6522;49.622;6.126;2022-10-16T17:45:37;15.40;;;10.48;;
12908;SDS011;6522;49.622;6.126;2022-10-16T17:48:24;14.30;;;10.98;;
12908;SDS011;6522;49.622;6.126;2022-10-16T17:51:11;12.43;;;10.93;;
12908;SDS011;6522;49.622;6.126;2022-10-16T17:53:58;12.65;;;11.00;;
12908;SDS011;6522;49.622;6.126;2022-10-16T17:56:44;14.07;;;11.15;;
12908;SDS011;6522;49.622;6.126;2022-10-16T17:59:31;15.68;;;10.20;;
12908;SDS011;6522;49.622;6.126;2022-10-16T18:02:18;14.75;;;11.35;;
12908;SDS011;6522;49.622;6.126;2022-10-16T18:05:04;13.88;;;10.57;;
12908;SDS011;6522;49.622;6.126;2022-10-16T18:07:51;13.48;;;11.40;;
12908;SDS011;6522;49.622;6.126;2022-10-16T18:10:45;15.82;;;11.90;;
12908;SDS011;6522;49.622;6.126;2022-10-16T18:13:31;13.95;;;12.43;;
12908;SDS011;6522;49.622;6.126;2022-10-16T18:16:18;15.32;;;11.57;;
12908;SDS011;6522;49.622;6.126;2022-10-16T18:19:05;12.43;;;11.12;;
12908;SDS011;6522;49.622;6.126;2022-10-16T18:21:52;14.63;;;11.88;;
12908;SDS011;6522;49.622;6.126;2022-10-16T18:24:38;17.48;;;11.27;;